createdAt,value
2019-03-04T00:01:09.124Z,67.24
2019-03-04T00:03:38.966Z,67.11
2019-03-04T00:06:08.725Z,66.57
2019-03-04T00:08:38.387Z,66.42
2019-03-04T00:11:08.231Z,66.40
2019-03-04T00:13:37.961Z,66.47
2019-03-04T00:16:07.659Z,66.23
2019-03-04T00:18:37.419Z,65.91
2019-03-04T00:21:07.411Z,65.92
2019-03-04T00:23:37.080Z,66.13
2019-03-04T00:26:06.873Z,66.50
2019-03-04T00:28:36.583Z,66.95
2019-03-04T00:31:06.382Z,67.34
2019-03-04T00:33:36.084Z,67.25
2019-03-04T00:36:05.955Z,67.34
2019-03-04T00:38:35.730Z,67.36
2019-03-04T00:41:05.640Z,67.48
2019-03-04T00:43:35.392Z,67.65
2019-03-04T00:46:05.836Z,67.75
2019-03-04T00:48:35.544Z,67.72
2019-03-04T00:51:05.706Z,67.74
2019-03-04T00:53:35.481Z,67.77
2019-03-04T00:56:05.254Z,67.85
2019-03-04T00:58:34.964Z,67.64
2019-03-04T01:01:04.786Z,67.71
2019-03-04T01:03:34.539Z,67.07
2019-03-04T01:06:04.365Z,66.96
2019-03-04T01:08:34.041Z,67.05
2019-03-04T01:11:03.821Z,66.98
2019-03-04T01:13:33.474Z,66.83
2019-03-04T01:16:03.157Z,66.18
2019-03-04T01:18:33.493Z,66.12
2019-03-04T01:21:03.316Z,66.32
2019-03-04T01:23:33.227Z,66.08
2019-03-04T01:26:02.939Z,66.07
2019-03-04T01:28:32.576Z,66.09
2019-03-04T01:31:02.291Z,65.85
2019-03-04T01:33:32.030Z,65.69
2019-03-04T01:36:01.700Z,65.89
2019-03-04T01:38:31.348Z,65.77
2019-03-04T01:41:01.120Z,65.51
2019-03-04T01:43:30.879Z,64.96
2019-03-04T01:46:00.567Z,65.34
2019-03-04T01:48:30.316Z,65.15
2019-03-04T01:50:59.978Z,65.19
2019-03-04T01:53:29.762Z,65.58
2019-03-04T01:55:59.489Z,65.69
2019-03-04T01:58:29.201Z,65.91
2019-03-04T02:00:59.012Z,65.88
2019-03-04T02:03:28.727Z,66.01
2019-03-04T02:05:58.464Z,66.26
2019-03-04T02:08:28.146Z,66.54
2019-03-04T02:10:57.898Z,66.58
2019-03-04T02:13:27.706Z,66.72
2019-03-04T02:15:57.624Z,66.37
2019-03-04T02:18:27.394Z,66.70
2019-03-04T02:20:57.580Z,66.91
2019-03-04T02:23:27.279Z,67.08
2019-03-04T02:26:09.386Z,67.22
2019-03-04T02:28:39.091Z,67.32
2019-03-04T02:31:08.940Z,67.43
2019-03-04T02:33:38.650Z,67.08
2019-03-04T02:36:08.289Z,67.31
2019-03-04T02:38:38.064Z,66.98
2019-03-04T02:41:07.765Z,67.17
2019-03-04T02:43:37.408Z,67.00
2019-03-04T02:46:07.268Z,66.93
2019-03-04T02:48:37.054Z,67.08
2019-03-04T02:51:06.989Z,66.63
2019-03-04T02:53:36.801Z,66.51
2019-03-04T02:56:06.618Z,66.50
2019-03-04T02:58:36.334Z,66.40
2019-03-04T03:01:06.327Z,66.53
2019-03-04T03:03:36.120Z,66.11
2019-03-04T03:06:05.949Z,66.03
2019-03-04T03:08:35.625Z,65.63
2019-03-04T03:11:05.450Z,65.12
2019-03-04T03:13:35.101Z,64.75
2019-03-04T03:16:05.053Z,64.77
2019-03-04T03:18:34.718Z,64.89
2019-03-04T03:21:04.526Z,64.60
2019-03-04T03:23:34.307Z,64.19
2019-03-04T03:26:04.074Z,63.82
2019-03-04T03:28:33.780Z,63.83
2019-03-04T03:31:03.594Z,63.60
2019-03-04T03:33:33.535Z,63.00
2019-03-04T03:36:03.260Z,62.68
2019-03-04T03:38:32.961Z,61.61
2019-03-04T03:41:02.623Z,61.26
2019-03-04T03:43:32.352Z,61.17
2019-03-04T03:46:02.068Z,60.61
2019-03-04T03:48:31.776Z,60.51
2019-03-04T03:51:01.425Z,59.99
2019-03-04T03:53:31.097Z,59.72
2019-03-04T03:56:01.023Z,59.79
2019-03-04T03:58:30.776Z,59.90
2019-03-04T04:01:00.524Z,60.23
2019-03-04T04:03:30.310Z,60.45
2019-03-04T04:06:00.020Z,60.46
2019-03-04T04:08:29.751Z,60.43
2019-03-04T04:10:59.396Z,60.40
2019-03-04T04:13:29.089Z,60.45
2019-03-04T04:15:58.749Z,60.84
2019-03-04T04:18:29.302Z,60.83
2019-03-04T04:20:58.959Z,60.53
2019-03-04T04:23:28.927Z,60.67
2019-03-04T04:25:58.680Z,60.22
2019-03-04T04:28:29.654Z,60.61
2019-03-04T04:30:59.311Z,60.63
2019-03-04T04:33:29.022Z,60.65
2019-03-04T04:35:58.719Z,60.35
2019-03-04T04:38:28.414Z,59.33
2019-03-04T04:40:58.061Z,58.13
2019-03-04T04:43:27.779Z,58.21
2019-03-04T04:45:57.505Z,57.31
2019-03-04T04:48:27.198Z,57.07
2019-03-04T04:50:56.892Z,57.18
2019-03-04T04:53:26.620Z,57.22
2019-03-04T04:55:56.393Z,56.65
2019-03-04T04:58:26.161Z,56.57
2019-03-04T05:00:55.874Z,56.47
2019-03-04T05:03:25.584Z,56.76
2019-03-04T05:05:55.341Z,56.68
2019-03-04T05:08:25.006Z,56.68
2019-03-04T05:10:54.766Z,56.81
2019-03-04T05:13:24.693Z,57.15
2019-03-04T05:15:54.381Z,56.88
2019-03-04T05:18:24.086Z,56.98
2019-03-04T05:20:53.768Z,57.19
2019-03-04T05:23:23.690Z,57.15
2019-03-04T05:25:53.324Z,57.42
2019-03-04T05:28:23.113Z,57.77
2019-03-04T05:30:52.933Z,57.68
2019-03-04T05:33:22.659Z,57.90
2019-03-04T05:35:52.303Z,57.91
2019-03-04T05:38:21.984Z,57.58
2019-03-04T05:40:51.672Z,57.58
2019-03-04T05:43:21.377Z,57.36
2019-03-04T05:45:51.047Z,57.28
2019-03-04T05:48:20.744Z,57.75
2019-03-04T05:50:50.504Z,58.56
2019-03-04T05:53:20.213Z,60.02
2019-03-04T05:55:49.885Z,60.84
2019-03-04T05:58:19.574Z,60.92
2019-03-04T06:00:49.254Z,61.09
2019-03-04T06:03:23.306Z,64.68
2019-03-04T06:05:52.977Z,69.99
2019-03-04T06:08:22.676Z,72.48
2019-03-04T06:10:52.460Z,74.21
2019-03-04T06:13:22.192Z,75.17
2019-03-04T06:15:51.864Z,75.80
2019-03-04T06:18:21.569Z,76.38
2019-03-04T06:20:51.240Z,77.11
2019-03-04T06:23:20.916Z,77.08
2019-03-04T06:25:51.593Z,75.39
2019-03-04T06:28:21.366Z,74.80
2019-03-04T06:30:51.091Z,75.00
2019-03-04T06:33:21.181Z,74.50
2019-03-04T06:35:50.971Z,74.30
2019-03-04T06:38:20.719Z,72.87
2019-03-04T06:40:50.433Z,71.56
2019-03-04T06:43:20.157Z,70.14
2019-03-04T06:45:49.840Z,69.08
2019-03-04T06:48:19.495Z,69.00
2019-03-04T06:50:55.364Z,69.08
2019-03-04T06:53:44.602Z,68.47
2019-03-04T06:56:40.043Z,69.09
2019-03-04T06:59:32.488Z,69.01
2019-03-04T07:02:12.319Z,69.38
2019-03-04T07:05:07.786Z,69.04
2019-03-04T07:07:37.487Z,69.75
2019-03-04T07:10:09.786Z,70.01
2019-03-04T07:12:39.448Z,69.89
2019-03-04T07:15:10.526Z,69.90
2019-03-04T07:17:40.210Z,69.95
2019-03-04T07:20:16.484Z,70.15
2019-03-04T07:22:48.397Z,69.80
2019-03-04T07:25:17.538Z,69.66
2019-03-04T07:27:47.276Z,69.41
2019-03-04T07:30:19.260Z,69.60
2019-03-04T07:32:50.194Z,69.44
2019-03-04T07:35:19.953Z,69.50
2019-03-04T07:38:06.181Z,69.43
2019-03-04T07:40:35.863Z,69.06
2019-03-04T07:43:05.633Z,68.36
2019-03-04T07:45:35.519Z,68.19
2019-03-04T07:48:05.340Z,67.74
2019-03-04T07:50:35.109Z,67.21
2019-03-04T07:53:04.862Z,67.35
2019-03-04T07:55:34.650Z,67.87
2019-03-04T07:58:04.633Z,68.65
2019-03-04T08:00:34.712Z,68.85
2019-03-04T08:03:04.441Z,69.05
2019-03-04T08:05:34.182Z,68.73
2019-03-04T08:08:12.845Z,68.94
2019-03-04T08:11:01.184Z,68.71
2019-03-04T08:13:47.413Z,68.79
2019-03-04T08:16:17.097Z,69.31
2019-03-04T08:18:46.852Z,69.23
2019-03-04T08:21:16.553Z,69.10
2019-03-04T08:23:46.531Z,68.54
2019-03-04T08:26:16.429Z,68.40
2019-03-04T08:28:46.189Z,67.83
2019-03-04T08:31:16.245Z,66.80
2019-03-04T08:33:45.906Z,64.87
2019-03-04T08:36:15.624Z,64.11
2019-03-04T08:38:45.329Z,62.62
2019-03-04T08:41:15.166Z,61.78
2019-03-04T08:43:44.845Z,60.43
2019-03-04T08:46:14.574Z,59.66
2019-03-04T08:48:44.455Z,59.41
2019-03-04T08:51:14.168Z,59.61
2019-03-04T08:53:44.005Z,57.28
2019-03-04T08:56:13.735Z,56.67
2019-03-04T08:58:43.526Z,57.07
2019-03-04T09:01:13.332Z,56.89
2019-03-04T09:03:42.971Z,56.40
2019-03-04T09:06:12.820Z,56.44
2019-03-04T09:08:42.501Z,56.45
2019-03-04T09:11:12.412Z,56.33
2019-03-04T09:13:42.325Z,56.12
2019-03-04T09:16:12.130Z,56.54
2019-03-04T09:18:42.197Z,56.51
2019-03-04T09:21:11.974Z,57.39
2019-03-04T09:23:41.752Z,57.24
2019-03-04T09:26:12.984Z,57.51
2019-03-04T09:28:42.886Z,58.03
2019-03-04T09:31:12.762Z,58.98
2019-03-04T09:33:42.435Z,59.50
2019-03-04T09:36:12.254Z,60.56
2019-03-04T09:38:41.957Z,62.30
2019-03-04T09:41:11.811Z,63.61
2019-03-04T09:43:41.593Z,65.25
2019-03-04T09:46:11.270Z,66.49
2019-03-04T09:48:41.150Z,67.10
2019-03-04T09:51:10.892Z,67.38
2019-03-04T09:53:40.583Z,68.87
2019-03-04T09:56:10.307Z,69.23
2019-03-04T09:58:40.090Z,68.91
2019-03-04T10:01:19.847Z,70.03
2019-03-04T10:04:21.482Z,69.54
2019-03-04T10:07:04.586Z,69.46
2019-03-04T10:09:58.639Z,68.05
2019-03-04T10:12:44.787Z,67.79
2019-03-04T10:15:20.523Z,67.54
2019-03-04T10:18:14.733Z,66.57
2019-03-04T10:21:36.086Z,66.63
2019-03-04T10:24:51.314Z,66.00
2019-03-04T10:27:35.303Z,65.74
2019-03-04T10:30:33.999Z,65.64
2019-03-04T10:33:17.213Z,65.43
2019-03-04T10:36:03.120Z,64.05
2019-03-04T10:38:43.604Z,64.07
2019-03-04T10:41:44.169Z,63.69
2019-03-04T10:44:37.839Z,64.32
2019-03-04T10:47:07.423Z,63.42
2019-03-04T10:49:37.495Z,64.46
2019-03-04T10:52:07.308Z,64.87
2019-03-04T10:54:37.109Z,66.16
2019-03-04T10:57:06.910Z,67.25
2019-03-04T10:59:36.688Z,69.21
2019-03-04T11:02:06.551Z,73.59
2019-03-04T11:04:36.326Z,74.98
2019-03-04T11:07:06.174Z,76.01
2019-03-04T11:09:35.828Z,77.33
2019-03-04T11:12:05.655Z,77.81
2019-03-04T11:14:35.777Z,78.48
2019-03-04T11:17:05.443Z,78.10
2019-03-04T11:19:35.227Z,77.99
2019-03-04T11:22:05.147Z,77.63
2019-03-04T11:24:35.003Z,76.92
2019-03-04T11:27:04.897Z,76.59
2019-03-04T11:29:34.616Z,76.07
2019-03-04T11:32:05.433Z,77.07
2019-03-04T11:34:35.135Z,77.50
2019-03-04T11:37:05.170Z,77.11
2019-03-04T11:39:45.540Z,77.21
2019-03-04T11:42:15.259Z,76.34
2019-03-04T11:44:45.067Z,75.22
2019-03-04T11:47:14.782Z,74.25
2019-03-04T11:49:44.549Z,72.57
2019-03-04T11:52:14.725Z,72.04
2019-03-04T11:54:44.581Z,73.26
2019-03-04T11:57:14.332Z,70.86
2019-03-04T11:59:44.249Z,71.56
2019-03-04T12:02:15.630Z,70.67
2019-03-04T12:04:45.394Z,71.58
2019-03-04T12:07:15.195Z,71.04
2019-03-04T12:09:44.977Z,71.10
2019-03-04T12:12:14.701Z,70.75
2019-03-04T12:14:44.551Z,70.80
2019-03-04T12:17:14.197Z,69.99
2019-03-04T12:19:43.973Z,69.65
2019-03-04T12:22:13.673Z,69.44
2019-03-04T12:24:43.325Z,70.11
2019-03-04T12:27:13.023Z,70.18
2019-03-04T12:29:42.701Z,70.34
2019-03-04T12:32:14.025Z,70.53
2019-03-04T12:34:43.769Z,70.59
2019-03-04T12:37:13.495Z,70.17
2019-03-04T12:39:43.211Z,70.24
2019-03-04T12:42:13.572Z,70.19
2019-03-04T12:44:43.245Z,69.27
2019-03-04T12:47:13.065Z,69.06
2019-03-04T12:49:42.837Z,68.87
2019-03-04T12:52:12.599Z,69.07
2019-03-04T12:54:42.243Z,68.79
2019-03-04T12:57:12.399Z,68.56
2019-03-04T12:59:42.113Z,68.57
2019-03-04T13:02:11.980Z,68.82
2019-03-04T13:04:41.816Z,69.09
2019-03-04T13:07:11.575Z,69.00
2019-03-04T13:09:41.580Z,69.26
2019-03-04T13:12:11.440Z,69.04
2019-03-04T13:14:41.149Z,68.86
2019-03-04T13:17:10.981Z,68.99
2019-03-04T13:19:40.790Z,69.13
2019-03-04T13:22:10.577Z,69.57
2019-03-04T13:24:40.349Z,69.42
2019-03-04T13:27:10.091Z,68.86
2019-03-04T13:29:39.872Z,69.29
2019-03-04T13:32:09.616Z,68.54
2019-03-04T13:34:39.344Z,68.50
2019-03-04T13:37:09.200Z,67.64
2019-03-04T13:39:38.868Z,67.53
2019-03-04T13:42:08.704Z,67.32
2019-03-04T13:44:38.466Z,66.86
2019-03-04T13:47:08.321Z,66.51
2019-03-04T13:49:38.159Z,66.11
2019-03-04T13:52:08.117Z,65.30
2019-03-04T13:54:37.835Z,64.90
2019-03-04T13:57:07.758Z,63.33
2019-03-04T13:59:37.509Z,61.74
2019-03-04T14:02:07.338Z,60.36
2019-03-04T14:04:36.992Z,59.30
2019-03-04T14:07:06.819Z,57.90
2019-03-04T14:09:36.494Z,58.26
2019-03-04T14:12:06.708Z,57.08
2019-03-04T14:14:36.509Z,56.67
2019-03-04T14:17:06.252Z,56.08
2019-03-04T14:19:35.963Z,56.52
2019-03-04T14:22:06.090Z,56.22
2019-03-04T14:24:35.857Z,56.54
2019-03-04T14:27:05.669Z,57.77
2019-03-04T14:29:35.432Z,56.37
2019-03-04T14:32:07.110Z,56.16
2019-03-04T14:34:36.680Z,56.38
2019-03-04T14:37:06.355Z,52.82
2019-03-04T14:39:36.031Z,51.02
2019-03-04T14:42:05.761Z,50.28
2019-03-04T14:44:35.843Z,50.58
2019-03-04T14:47:05.973Z,49.95
2019-03-04T14:49:44.485Z,50.07
2019-03-04T14:52:07.224Z,49.90
2019-03-04T14:54:36.929Z,50.07
2019-03-04T14:57:06.744Z,50.35
2019-03-04T14:59:36.501Z,51.14
2019-03-04T15:02:06.380Z,50.66
2019-03-04T15:04:36.158Z,51.52
2019-03-04T15:07:05.970Z,51.12
2019-03-04T15:09:35.745Z,51.53
2019-03-04T15:12:05.554Z,51.33
2019-03-04T15:14:35.212Z,51.12
2019-03-04T15:17:05.135Z,51.59
2019-03-04T15:19:34.832Z,51.56
2019-03-04T15:22:04.741Z,52.43
2019-03-04T15:24:34.521Z,52.46
2019-03-04T15:27:04.254Z,52.65
2019-03-04T15:29:34.111Z,52.99
2019-03-04T15:32:03.920Z,52.69
2019-03-04T15:34:33.768Z,52.06
2019-03-04T15:37:03.576Z,51.47
2019-03-04T15:39:33.360Z,51.18
2019-03-04T15:42:03.191Z,51.54
2019-03-04T15:44:32.915Z,51.54
2019-03-04T15:47:02.884Z,50.80
2019-03-04T15:49:32.597Z,50.38
2019-03-04T15:52:02.277Z,50.47
2019-03-04T15:54:31.991Z,50.84
2019-03-04T15:57:03.813Z,50.75
2019-03-04T15:59:33.704Z,51.03
2019-03-04T16:02:07.798Z,51.17
2019-03-04T16:04:37.844Z,51.19
2019-03-04T16:07:09.602Z,50.00
2019-03-04T16:09:39.796Z,49.63
2019-03-04T16:12:11.358Z,49.16
2019-03-04T16:14:41.242Z,49.82
2019-03-04T16:17:11.122Z,49.96
2019-03-04T16:19:40.915Z,50.17
2019-03-04T16:22:10.924Z,50.31
2019-03-04T16:24:40.675Z,49.99
2019-03-04T16:27:12.154Z,50.09
2019-03-04T16:29:42.100Z,50.19
2019-03-04T16:32:11.891Z,50.11
2019-03-04T16:55:41.509Z,50.44
2019-03-04T16:58:11.260Z,50.43
2019-03-04T17:00:42.252Z,51.03
2019-03-04T17:03:12.149Z,51.20
2019-03-04T17:05:41.933Z,51.88
2019-03-04T17:08:11.806Z,52.58
2019-03-04T17:11:13.940Z,52.99
2019-03-04T17:13:43.787Z,53.36
2019-03-04T17:16:13.534Z,53.38
2019-03-04T17:18:43.337Z,53.63
2019-03-04T17:21:13.169Z,53.99
2019-03-04T17:23:42.855Z,54.89
2019-03-04T17:26:12.617Z,54.06
2019-03-04T17:28:42.388Z,54.47
2019-03-04T17:31:12.234Z,54.58
2019-03-04T17:33:42.222Z,54.95
2019-03-04T17:36:12.106Z,55.23
2019-03-04T17:38:41.927Z,55.64
2019-03-04T17:41:11.810Z,55.76
2019-03-04T17:43:41.563Z,55.76
2019-03-04T17:46:11.323Z,55.86
2019-03-04T17:48:41.104Z,55.85
2019-03-04T17:51:10.863Z,55.97
2019-03-04T17:53:41.142Z,56.04
2019-03-04T17:56:10.852Z,56.07
2019-03-04T17:58:40.962Z,55.62
2019-03-04T18:01:11.167Z,55.59
2019-03-04T18:03:40.851Z,56.24
2019-03-04T18:06:10.671Z,55.71
2019-03-04T18:08:40.459Z,56.08
2019-03-04T18:11:10.144Z,56.31
2019-03-04T18:13:39.933Z,56.11
2019-03-04T18:16:09.689Z,56.27
2019-03-04T18:18:39.494Z,56.32
2019-03-04T18:21:09.222Z,56.15
2019-03-04T18:23:39.009Z,56.29
2019-03-04T18:26:13.320Z,56.17
2019-03-04T18:29:03.963Z,56.39
2019-03-04T18:31:59.393Z,56.46
2019-03-04T18:34:59.439Z,56.40
2019-03-04T18:38:03.846Z,56.70
2019-03-04T18:41:02.002Z,56.50
2019-03-04T18:43:51.474Z,56.72
2019-03-04T18:46:34.865Z,56.99
2019-03-04T18:49:04.740Z,56.98
2019-03-04T18:51:35.233Z,57.37
2019-03-04T18:54:08.013Z,58.48
2019-03-04T18:56:37.789Z,58.21
2019-03-04T18:59:08.810Z,58.22
2019-03-04T19:01:38.634Z,58.20
2019-03-04T19:04:08.641Z,58.26
2019-03-04T19:06:38.287Z,58.32
2019-03-04T19:09:08.644Z,58.21
2019-03-04T19:11:38.731Z,58.62
2019-03-04T19:14:08.799Z,58.88
2019-03-04T19:16:38.502Z,58.72
2019-03-04T19:19:08.220Z,58.96
2019-03-04T19:21:37.880Z,59.05
2019-03-04T19:24:07.665Z,59.19
2019-03-04T19:26:37.435Z,59.43
2019-03-04T19:29:07.311Z,59.66
2019-03-04T19:31:37.151Z,60.07
2019-03-04T19:34:07.047Z,60.16
2019-03-04T19:36:36.876Z,60.41
2019-03-04T19:39:08.717Z,60.68
2019-03-04T19:41:38.691Z,60.77
2019-03-04T19:44:08.455Z,60.80
2019-03-04T19:46:38.208Z,62.23
2019-03-04T19:49:08.125Z,61.28
2019-03-04T19:51:37.916Z,61.74
2019-03-04T19:54:07.689Z,61.63
2019-03-04T19:56:37.466Z,61.54
2019-03-04T19:59:07.310Z,61.93
2019-03-04T20:01:37.082Z,62.27
2019-03-04T20:04:07.032Z,61.99
2019-03-04T20:06:37.804Z,62.28
2019-03-04T20:09:09.975Z,62.27
2019-03-04T20:11:39.897Z,62.16
2019-03-04T20:14:09.940Z,62.17
2019-03-04T20:16:39.717Z,62.50
2019-03-04T20:19:09.579Z,62.37
2019-03-04T20:21:39.282Z,62.33
2019-03-04T20:24:09.049Z,62.39
2019-03-04T20:26:38.690Z,62.64
2019-03-04T20:29:08.515Z,62.76
2019-03-04T20:31:38.243Z,62.78
2019-03-04T20:34:08.080Z,62.59
2019-03-04T20:36:37.795Z,62.37
2019-03-04T20:39:09.800Z,62.68
2019-03-04T20:41:40.643Z,62.87
2019-03-04T20:44:11.440Z,63.18
2019-03-04T20:46:41.152Z,63.53
2019-03-04T20:49:11.223Z,63.31
2019-03-04T20:51:41.041Z,63.37
2019-03-04T20:54:10.842Z,63.48
2019-03-04T20:56:40.647Z,63.65
2019-03-04T20:59:10.460Z,64.53
2019-03-04T21:01:40.716Z,66.73
2019-03-04T21:04:10.706Z,68.75
2019-03-04T21:06:40.543Z,71.07
2019-03-04T21:09:13.368Z,73.67
2019-03-04T21:11:43.206Z,75.18
2019-03-04T21:14:13.049Z,75.49
2019-03-04T21:16:42.829Z,76.10
2019-03-04T21:19:12.717Z,76.66
2019-03-04T21:21:42.917Z,76.60
2019-03-04T21:24:12.860Z,76.09
2019-03-04T21:26:42.992Z,76.63
2019-03-04T21:29:30.174Z,76.87
2019-03-04T21:32:14.264Z,76.62
2019-03-04T21:35:20.291Z,76.41
2019-03-04T21:37:50.350Z,76.90
2019-03-04T21:40:33.446Z,76.80
2019-03-04T21:43:07.708Z,77.21
2019-03-04T21:46:08.991Z,77.05
2019-03-04T21:48:50.127Z,76.83
2019-03-04T21:51:38.505Z,77.11
2019-03-04T21:54:09.886Z,77.09
2019-03-04T21:57:02.051Z,77.03
2019-03-04T21:59:31.763Z,77.16
2019-03-04T22:02:12.020Z,77.51
2019-03-04T22:04:42.049Z,77.55
2019-03-04T22:07:13.807Z,77.76
2019-03-04T22:09:43.687Z,77.75
2019-03-04T22:12:14.969Z,77.61
2019-03-04T22:14:44.747Z,77.80
2019-03-04T22:17:14.561Z,77.63
2019-03-04T22:19:44.373Z,77.82
2019-03-04T22:22:14.099Z,77.32
2019-03-04T22:24:43.868Z,77.44
2019-03-04T22:27:13.722Z,77.41
2019-03-04T22:29:43.511Z,77.42
2019-03-04T22:32:13.206Z,77.75
2019-03-04T22:34:42.969Z,77.77
2019-03-04T22:37:12.788Z,77.46
2019-03-04T22:39:42.564Z,77.32
2019-03-04T22:42:12.228Z,77.40
2019-03-04T22:44:41.989Z,77.32
2019-03-04T22:47:11.777Z,77.11
2019-03-04T22:49:41.462Z,76.88
2019-03-04T22:52:11.269Z,76.91
2019-03-04T22:54:41.101Z,76.89
2019-03-04T22:57:11.032Z,76.29
2019-03-04T22:59:40.740Z,76.20
2019-03-04T23:02:10.949Z,75.75
2019-03-04T23:04:41.350Z,76.00
2019-03-04T23:07:11.532Z,75.80
2019-03-04T23:09:48.778Z,75.23
2019-03-04T23:12:23.336Z,74.34
2019-03-04T23:14:53.525Z,74.12
2019-03-04T23:17:23.521Z,74.17
2019-03-04T23:19:53.666Z,73.95
2019-03-04T23:22:23.451Z,73.83
2019-03-04T23:24:53.223Z,73.47
2019-03-04T23:27:22.975Z,73.45
2019-03-04T23:29:52.709Z,73.80
2019-03-04T23:32:22.554Z,73.80
2019-03-04T23:34:52.196Z,73.24
2019-03-04T23:37:21.979Z,73.02
2019-03-04T23:39:51.693Z,73.23
2019-03-04T23:42:21.460Z,73.06
2019-03-04T23:44:51.296Z,72.92
2019-03-04T23:47:21.049Z,73.13
2019-03-04T23:50:10.649Z,73.15
2019-03-04T23:52:40.447Z,73.00
2019-03-04T23:55:10.825Z,72.72
2019-03-04T23:57:40.503Z,72.68
